sensor_id;sensor_type;location;lat;lon;timestamp;P1;durP1;ratioP1;P2;durP2;ratioP2
428;SDS011;201;48.758;9.290;2022-09-09T00:00:14;3.93;;;1.90;;
428;SDS011;201;48.758;9.290;2022-09-09T00:02:43;4.50;;;2.30;;
428;SDS011;201;48.758;9.290;2022-09-09T00:08:20;7.67;;;2.10;;
428;SDS011;201;48.758;9.290;2022-09-09T00:10:52;6.53;;;4.07;;
428;SDS011;201;48.758;9.290;2022-09-09T00:21:54;7.83;;;2.93;;
428;SDS011;201;48.758;9.290;2022-09-09T00:24:45;4.60;;;2.20;;
428;SDS011;201;48.758;9.290;2022-09-09T00:27:26;8.00;;;2.47;;
428;SDS011;201;48.758;9.290;2022-09-09T00:30:12;5.53;;;2.87;;
428;SDS011;201;48.758;9.290;2022-09-09T00:32:47;3.03;;;2.60;;
428;SDS011;201;48.758;9.290;2022-09-09T00:35:16;8.33;;;3.10;;
428;SDS011;201;48.758;9.290;2022-09-09T00:37:43;5.87;;;2.30;;
428;SDS011;201;48.758;9.290;2022-09-09T00:40:22;4.80;;;2.50;;
428;SDS011;201;48.758;9.290;2022-09-09T00:45:55;3.57;;;2.20;;
428;SDS011;201;48.758;9.290;2022-09-09T00:48:26;4.90;;;2.60;;
428;SDS011;201;48.758;9.290;2022-09-09T00:51:02;4.13;;;2.43;;
428;SDS011;201;48.758;9.290;2022-09-09T00:53:56;2.40;;;2.20;;
428;SDS011;201;48.758;9.290;2022-09-09T00:56:45;4.33;;;1.87;;
428;SDS011;201;48.758;9.290;2022-09-09T01:00:16;3.43;;;2.07;;
428;SDS011;201;48.758;9.290;2022-09-09T01:05:13;3.20;;;1.67;;
428;SDS011;201;48.758;9.290;2022-09-09T01:07:57;3.27;;;2.00;;
428;SDS011;201;48.758;9.290;2022-09-09T01:15:55;2.10;;;1.40;;
428;SDS011;201;48.758;9.290;2022-09-09T01:18:25;3.53;;;1.70;;
428;SDS011;201;48.758;9.290;2022-09-09T01:20:55;3.73;;;1.53;;
428;SDS011;201;48.758;9.290;2022-09-09T01:26:30;3.77;;;1.60;;
428;SDS011;201;48.758;9.290;2022-09-09T01:29:08;2.00;;;1.37;;
428;SDS011;201;48.758;9.290;2022-09-09T01:31:38;2.53;;;1.40;;
428;SDS011;201;48.758;9.290;2022-09-09T01:34:13;2.10;;;1.63;;
428;SDS011;201;48.758;9.290;2022-09-09T01:36:51;6.83;;;1.70;;
428;SDS011;201;48.758;9.290;2022-09-09T01:39:23;1.83;;;1.53;;
428;SDS011;201;48.758;9.290;2022-09-09T01:41:48;2.53;;;1.33;;
428;SDS011;201;48.758;9.290;2022-09-09T01:44:14;2.30;;;1.00;;
428;SDS011;201;48.758;9.290;2022-09-09T01:46:40;2.47;;;1.20;;
428;SDS011;201;48.758;9.290;2022-09-09T01:49:06;1.70;;;1.13;;
428;SDS011;201;48.758;9.290;2022-09-09T01:51:33;5.93;;;1.40;;
428;SDS011;201;48.758;9.290;2022-09-09T01:54:01;2.67;;;1.47;;
428;SDS011;201;48.758;9.290;2022-09-09T02:01:42;1.87;;;1.20;;
428;SDS011;201;48.758;9.290;2022-09-09T02:09:43;3.20;;;1.30;;
428;SDS011;201;48.758;9.290;2022-09-09T02:12:13;3.23;;;1.30;;
428;SDS011;201;48.758;9.290;2022-09-09T02:14:43;5.77;;;1.40;;
428;SDS011;201;48.758;9.290;2022-09-09T02:17:17;1.60;;;1.17;;
428;SDS011;201;48.758;9.290;2022-09-09T02:19:50;1.23;;;0.90;;
428;SDS011;201;48.758;9.290;2022-09-09T02:22:22;3.20;;;1.93;;
428;SDS011;201;48.758;9.290;2022-09-09T02:24:50;2.33;;;1.10;;
428;SDS011;201;48.758;9.290;2022-09-09T02:27:20;1.73;;;1.00;;
428;SDS011;201;48.758;9.290;2022-09-09T02:29:47;3.80;;;1.27;;
428;SDS011;201;48.758;9.290;2022-09-09T02:32:17;1.97;;;1.20;;
428;SDS011;201;48.758;9.290;2022-09-09T02:34:48;2.70;;;1.13;;
428;SDS011;201;48.758;9.290;2022-09-09T02:37:21;3.73;;;1.73;;
428;SDS011;201;48.758;9.290;2022-09-09T02:39:53;0.90;;;0.87;;
428;SDS011;201;48.758;9.290;2022-09-09T02:42:19;4.40;;;1.40;;
428;SDS011;201;48.758;9.290;2022-09-09T02:44:45;2.23;;;1.40;;
428;SDS011;201;48.758;9.290;2022-09-09T02:52:44;1.37;;;1.07;;
428;SDS011;201;48.758;9.290;2022-09-09T02:57:56;6.00;;;1.70;;
428;SDS011;201;48.758;9.290;2022-09-09T03:00:25;4.47;;;1.50;;
428;SDS011;201;48.758;9.290;2022-09-09T03:02:52;1.83;;;1.50;;
428;SDS011;201;48.758;9.290;2022-09-09T03:05:19;4.80;;;1.80;;
428;SDS011;201;48.758;9.290;2022-09-09T03:07:45;2.07;;;1.70;;
428;SDS011;201;48.758;9.290;2022-09-09T03:10:11;2.97;;;1.90;;
428;SDS011;201;48.758;9.290;2022-09-09T03:12:36;5.43;;;1.83;;
428;SDS011;201;48.758;9.290;2022-09-09T03:15:03;2.70;;;1.80;;
428;SDS011;201;48.758;9.290;2022-09-09T03:17:29;2.70;;;1.57;;
428;SDS011;201;48.758;9.290;2022-09-09T03:19:55;2.17;;;1.60;;
428;SDS011;201;48.758;9.290;2022-09-09T03:22:22;2.27;;;1.70;;
428;SDS011;201;48.758;9.290;2022-09-09T03:24:48;4.40;;;2.07;;
428;SDS011;201;48.758;9.290;2022-09-09T03:27:13;5.20;;;1.80;;
428;SDS011;201;48.758;9.290;2022-09-09T03:29:39;4.03;;;1.73;;
428;SDS011;201;48.758;9.290;2022-09-09T03:32:05;5.17;;;2.50;;
428;SDS011;201;48.758;9.290;2022-09-09T03:34:31;6.07;;;2.93;;
428;SDS011;201;48.758;9.290;2022-09-09T03:36:56;5.23;;;4.53;;
428;SDS011;201;48.758;9.290;2022-09-09T03:39:22;9.20;;;5.93;;
428;SDS011;201;48.758;9.290;2022-09-09T03:41:47;7.60;;;6.00;;
428;SDS011;201;48.758;9.290;2022-09-09T03:44:13;9.43;;;5.40;;
428;SDS011;201;48.758;9.290;2022-09-09T03:46:39;5.63;;;4.23;;
428;SDS011;201;48.758;9.290;2022-09-09T03:49:05;5.73;;;4.50;;
428;SDS011;201;48.758;9.290;2022-09-09T03:51:30;10.07;;;4.00;;
428;SDS011;201;48.758;9.290;2022-09-09T03:53:56;5.60;;;3.50;;
428;SDS011;201;48.758;9.290;2022-09-09T03:56:23;6.20;;;3.77;;
428;SDS011;201;48.758;9.290;2022-09-09T03:58:49;5.30;;;3.17;;
428;SDS011;201;48.758;9.290;2022-09-09T04:01:14;4.37;;;2.80;;
428;SDS011;201;48.758;9.290;2022-09-09T04:03:42;5.20;;;3.20;;
428;SDS011;201;48.758;9.290;2022-09-09T04:06:10;8.30;;;3.60;;
428;SDS011;201;48.758;9.290;2022-09-09T04:08:38;7.27;;;3.23;;
428;SDS011;201;48.758;9.290;2022-09-09T04:11:04;3.30;;;2.70;;
428;SDS011;201;48.758;9.290;2022-09-09T04:13:31;4.50;;;2.43;;
428;SDS011;201;48.758;9.290;2022-09-09T04:16:02;13.17;;;3.00;;
428;SDS011;201;48.758;9.290;2022-09-09T04:18:28;4.13;;;2.63;;
428;SDS011;201;48.758;9.290;2022-09-09T04:20:54;2.83;;;2.20;;
428;SDS011;201;48.758;9.290;2022-09-09T04:23:22;7.10;;;2.87;;
428;SDS011;201;48.758;9.290;2022-09-09T04:25:52;5.13;;;2.97;;
428;SDS011;201;48.758;9.290;2022-09-09T04:28:20;5.00;;;2.40;;
428;SDS011;201;48.758;9.290;2022-09-09T04:30:47;4.37;;;2.43;;
428;SDS011;201;48.758;9.290;2022-09-09T04:33:13;4.43;;;3.20;;
428;SDS011;201;48.758;9.290;2022-09-09T04:35:44;4.20;;;2.40;;
428;SDS011;201;48.758;9.290;2022-09-09T04:38:11;5.00;;;2.57;;
428;SDS011;201;48.758;9.290;2022-09-09T04:40:36;7.90;;;2.70;;
428;SDS011;201;48.758;9.290;2022-09-09T04:43:08;3.80;;;2.57;;
428;SDS011;201;48.758;9.290;2022-09-09T04:45:33;2.80;;;1.60;;
428;SDS011;201;48.758;9.290;2022-09-09T04:47:59;5.87;;;2.90;;
428;SDS011;201;48.758;9.290;2022-09-09T04:50:25;2.00;;;1.67;;
428;SDS011;201;48.758;9.290;2022-09-09T04:52:50;3.23;;;1.97;;
428;SDS011;201;48.758;9.290;2022-09-09T04:55:16;2.97;;;1.70;;
428;SDS011;201;48.758;9.290;2022-09-09T04:57:42;3.50;;;2.00;;
428;SDS011;201;48.758;9.290;2022-09-09T05:00:07;3.40;;;2.40;;
428;SDS011;201;48.758;9.290;2022-09-09T05:02:37;4.23;;;2.03;;
428;SDS011;201;48.758;9.290;2022-09-09T05:05:03;3.07;;;2.10;;
428;SDS011;201;48.758;9.290;2022-09-09T05:07:29;4.23;;;1.90;;
428;SDS011;201;48.758;9.290;2022-09-09T05:09:56;3.73;;;2.17;;
428;SDS011;201;48.758;9.290;2022-09-09T05:12:22;6.83;;;2.20;;
428;SDS011;201;48.758;9.290;2022-09-09T05:14:50;4.00;;;2.17;;
428;SDS011;201;48.758;9.290;2022-09-09T05:17:16;2.67;;;1.97;;
428;SDS011;201;48.758;9.290;2022-09-09T05:19:41;5.77;;;2.10;;
428;SDS011;201;48.758;9.290;2022-09-09T05:22:08;3.43;;;2.60;;
428;SDS011;201;48.758;9.290;2022-09-09T05:24:33;3.90;;;2.20;;
428;SDS011;201;48.758;9.290;2022-09-09T05:26:59;4.07;;;1.97;;
428;SDS011;201;48.758;9.290;2022-09-09T05:29:26;2.33;;;1.87;;
428;SDS011;201;48.758;9.290;2022-09-09T05:31:52;4.03;;;2.03;;
428;SDS011;201;48.758;9.290;2022-09-09T05:34:17;2.70;;;1.87;;
428;SDS011;201;48.758;9.290;2022-09-09T05:36:44;4.80;;;1.87;;
428;SDS011;201;48.758;9.290;2022-09-09T05:39:09;2.43;;;1.47;;
428;SDS011;201;48.758;9.290;2022-09-09T05:41:36;2.03;;;1.40;;
428;SDS011;201;48.758;9.290;2022-09-09T05:44:02;1.63;;;1.40;;
428;SDS011;201;48.758;9.290;2022-09-09T05:46:28;1.90;;;1.30;;
428;SDS011;201;48.758;9.290;2022-09-09T05:48:54;4.00;;;1.03;;
428;SDS011;201;48.758;9.290;2022-09-09T05:51:20;2.00;;;1.50;;
428;SDS011;201;48.758;9.290;2022-09-09T05:53:51;1.37;;;1.30;;
428;SDS011;201;48.758;9.290;2022-09-09T05:56:17;9.10;;;2.33;;
428;SDS011;201;48.758;9.290;2022-09-09T05:58:50;2.73;;;1.60;;
428;SDS011;201;48.758;9.290;2022-09-09T06:01:21;2.83;;;1.47;;
428;SDS011;201;48.758;9.290;2022-09-09T06:03:51;7.13;;;1.80;;
428;SDS011;201;48.758;9.290;2022-09-09T06:06:18;1.97;;;1.57;;
428;SDS011;201;48.758;9.290;2022-09-09T06:08:45;4.47;;;1.97;;
428;SDS011;201;48.758;9.290;2022-09-09T06:11:13;3.53;;;2.03;;
428;SDS011;201;48.758;9.290;2022-09-09T06:13:40;4.20;;;1.80;;
428;SDS011;201;48.758;9.290;2022-09-09T06:16:08;5.10;;;1.93;;
428;SDS011;201;48.758;9.290;2022-09-09T06:18:37;4.47;;;2.40;;
428;SDS011;201;48.758;9.290;2022-09-09T06:21:04;2.53;;;1.80;;
428;SDS011;201;48.758;9.290;2022-09-09T06:23:32;7.77;;;2.27;;
428;SDS011;201;48.758;9.290;2022-09-09T06:28:44;4.90;;;2.00;;
428;SDS011;201;48.758;9.290;2022-09-09T06:31:12;3.70;;;1.70;;
428;SDS011;201;48.758;9.290;2022-09-09T06:33:42;6.03;;;2.00;;
428;SDS011;201;48.758;9.290;2022-09-09T06:36:13;3.57;;;2.07;;
428;SDS011;201;48.758;9.290;2022-09-09T06:38:43;4.53;;;2.10;;
428;SDS011;201;48.758;9.290;2022-09-09T06:41:10;2.57;;;1.80;;
428;SDS011;201;48.758;9.290;2022-09-09T06:43:37;2.40;;;1.80;;
428;SDS011;201;48.758;9.290;2022-09-09T06:46:05;1.80;;;1.57;;
428;SDS011;201;48.758;9.290;2022-09-09T06:48:33;5.40;;;1.70;;
428;SDS011;201;48.758;9.290;2022-09-09T06:51:13;4.10;;;1.77;;
428;SDS011;201;48.758;9.290;2022-09-09T06:53:44;3.00;;;1.50;;
428;SDS011;201;48.758;9.290;2022-09-09T06:58:39;1.50;;;1.17;;
428;SDS011;201;48.758;9.290;2022-09-09T07:01:09;2.80;;;1.57;;
428;SDS011;201;48.758;9.290;2022-09-09T07:03:37;5.10;;;1.73;;
428;SDS011;201;48.758;9.290;2022-09-09T07:06:03;3.47;;;1.40;;
428;SDS011;201;48.758;9.290;2022-09-09T07:08:30;2.90;;;1.57;;
428;SDS011;201;48.758;9.290;2022-09-09T07:11:01;1.90;;;1.50;;
428;SDS011;201;48.758;9.290;2022-09-09T07:13:29;2.27;;;1.67;;
428;SDS011;201;48.758;9.290;2022-09-09T07:15:55;10.60;;;1.90;;
428;SDS011;201;48.758;9.290;2022-09-09T07:18:20;5.17;;;2.07;;
428;SDS011;201;48.758;9.290;2022-09-09T07:20:55;1.90;;;1.43;;
428;SDS011;201;48.758;9.290;2022-09-09T07:23:21;5.73;;;1.83;;
428;SDS011;201;48.758;9.290;2022-09-09T07:25:47;8.60;;;2.20;;
428;SDS011;201;48.758;9.290;2022-09-09T07:28:13;4.87;;;1.43;;
428;SDS011;201;48.758;9.290;2022-09-09T07:30:39;6.40;;;1.30;;
428;SDS011;201;48.758;9.290;2022-09-09T07:33:05;5.33;;;2.03;;
428;SDS011;201;48.758;9.290;2022-09-09T07:35:31;5.13;;;1.50;;
428;SDS011;201;48.758;9.290;2022-09-09T07:37:57;2.17;;;1.40;;
428;SDS011;201;48.758;9.290;2022-09-09T07:40:23;3.33;;;1.70;;
428;SDS011;201;48.758;9.290;2022-09-09T07:42:49;5.00;;;1.87;;
428;SDS011;201;48.758;9.290;2022-09-09T07:45:14;3.13;;;1.77;;
428;SDS011;201;48.758;9.290;2022-09-09T07:47:40;2.70;;;1.83;;
428;SDS011;201;48.758;9.290;2022-09-09T07:50:09;2.83;;;2.00;;
428;SDS011;201;48.758;9.290;2022-09-09T07:52:35;6.80;;;2.27;;
428;SDS011;201;48.758;9.290;2022-09-09T07:55:01;1.67;;;1.47;;
428;SDS011;201;48.758;9.290;2022-09-09T07:57:27;3.53;;;1.63;;
428;SDS011;201;48.758;9.290;2022-09-09T07:59:55;4.30;;;2.70;;
428;SDS011;201;48.758;9.290;2022-09-09T08:02:21;7.00;;;1.50;;
428;SDS011;201;48.758;9.290;2022-09-09T08:04:48;2.00;;;1.10;;
428;SDS011;201;48.758;9.290;2022-09-09T08:07:13;2.63;;;1.40;;
428;SDS011;201;48.758;9.290;2022-09-09T08:09:41;1.83;;;1.10;;
428;SDS011;201;48.758;9.290;2022-09-09T08:12:06;5.33;;;1.10;;
428;SDS011;201;48.758;9.290;2022-09-09T08:14:33;2.00;;;1.10;;
428;SDS011;201;48.758;9.290;2022-09-09T08:16:58;3.37;;;1.20;;
428;SDS011;201;48.758;9.290;2022-09-09T08:19:24;2.73;;;1.03;;
428;SDS011;201;48.758;9.290;2022-09-09T08:21:50;2.70;;;1.43;;
428;SDS011;201;48.758;9.290;2022-09-09T08:24:15;6.33;;;1.50;;
428;SDS011;201;48.758;9.290;2022-09-09T08:26:42;3.00;;;1.33;;
428;SDS011;201;48.758;9.290;2022-09-09T08:29:10;3.13;;;1.70;;
428;SDS011;201;48.758;9.290;2022-09-09T08:31:41;2.83;;;1.20;;
428;SDS011;201;48.758;9.290;2022-09-09T08:34:10;0.90;;;0.53;;
428;SDS011;201;48.758;9.290;2022-09-09T08:36:37;1.97;;;0.83;;
428;SDS011;201;48.758;9.290;2022-09-09T08:39:06;1.40;;;0.70;;
428;SDS011;201;48.758;9.290;2022-09-09T08:49:41;3.07;;;1.20;;
428;SDS011;201;48.758;9.290;2022-09-09T08:52:16;1.27;;;0.77;;
428;SDS011;201;48.758;9.290;2022-09-09T08:54:46;2.17;;;0.90;;
428;SDS011;201;48.758;9.290;2022-09-09T08:57:18;2.60;;;0.73;;
428;SDS011;201;48.758;9.290;2022-09-09T08:59:49;2.30;;;0.70;;
428;SDS011;201;48.758;9.290;2022-09-09T09:02:25;2.20;;;0.80;;
428;SDS011;201;48.758;9.290;2022-09-09T09:11:04;1.40;;;0.60;;
428;SDS011;201;48.758;9.290;2022-09-09T09:13:37;3.47;;;0.70;;
428;SDS011;201;48.758;9.290;2022-09-09T09:16:13;2.40;;;0.70;;
428;SDS011;201;48.758;9.290;2022-09-09T09:18:52;3.00;;;0.80;;
428;SDS011;201;48.758;9.290;2022-09-09T09:21:21;1.17;;;0.80;;
428;SDS011;201;48.758;9.290;2022-09-09T09:27:07;2.13;;;0.70;;
428;SDS011;201;48.758;9.290;2022-09-09T09:29:38;3.27;;;0.87;;
428;SDS011;201;48.758;9.290;2022-09-09T09:32:05;1.67;;;0.80;;
428;SDS011;201;48.758;9.290;2022-09-09T09:34:35;4.17;;;1.37;;
428;SDS011;201;48.758;9.290;2022-09-09T09:37:00;4.00;;;0.93;;
428;SDS011;201;48.758;9.290;2022-09-09T09:39:27;5.43;;;2.07;;
428;SDS011;201;48.758;9.290;2022-09-09T09:41:53;5.90;;;2.20;;
428;SDS011;201;48.758;9.290;2022-09-09T09:44:29;3.80;;;1.17;;
428;SDS011;201;48.758;9.290;2022-09-09T09:47:10;3.50;;;1.10;;
428;SDS011;201;48.758;9.290;2022-09-09T09:49:38;2.20;;;0.80;;
428;SDS011;201;48.758;9.290;2022-09-09T09:52:04;2.70;;;1.00;;
428;SDS011;201;48.758;9.290;2022-09-09T09:54:38;1.90;;;1.33;;
428;SDS011;201;48.758;9.290;2022-09-09T09:57:14;3.30;;;1.00;;
428;SDS011;201;48.758;9.290;2022-09-09T09:59:41;1.17;;;0.47;;
428;SDS011;201;48.758;9.290;2022-09-09T10:02:23;2.93;;;1.03;;
428;SDS011;201;48.758;9.290;2022-09-09T10:14:04;7.27;;;2.13;;
428;SDS011;201;48.758;9.290;2022-09-09T10:19:34;1.73;;;0.60;;
428;SDS011;201;48.758;9.290;2022-09-09T10:27:44;3.00;;;0.70;;
428;SDS011;201;48.758;9.290;2022-09-09T10:30:33;1.20;;;0.50;;
428;SDS011;201;48.758;9.290;2022-09-09T10:36:04;1.87;;;1.00;;
428;SDS011;201;48.758;9.290;2022-09-09T10:39:01;1.87;;;0.70;;
428;SDS011;201;48.758;9.290;2022-09-09T10:50:07;3.40;;;1.10;;
428;SDS011;201;48.758;9.290;2022-09-09T10:53:09;1.40;;;0.90;;
428;SDS011;201;48.758;9.290;2022-09-09T10:55:56;1.77;;;0.90;;
428;SDS011;201;48.758;9.290;2022-09-09T10:58:31;1.80;;;0.97;;
428;SDS011;201;48.758;9.290;2022-09-09T11:01:15;1.17;;;0.73;;
428;SDS011;201;48.758;9.290;2022-09-09T11:03:52;2.23;;;1.60;;
428;SDS011;201;48.758;9.290;2022-09-09T11:06:36;1.67;;;0.57;;
428;SDS011;201;48.758;9.290;2022-09-09T11:09:08;3.00;;;0.97;;
428;SDS011;201;48.758;9.290;2022-09-09T11:11:42;2.60;;;0.90;;
428;SDS011;201;48.758;9.290;2022-09-09T11:14:15;3.37;;;1.00;;
428;SDS011;201;48.758;9.290;2022-09-09T11:16:48;2.43;;;1.10;;
428;SDS011;201;48.758;9.290;2022-09-09T11:19:34;2.57;;;0.70;;
428;SDS011;201;48.758;9.290;2022-09-09T11:24:41;3.13;;;0.87;;
428;SDS011;201;48.758;9.290;2022-09-09T11:27:14;4.60;;;1.40;;
428;SDS011;201;48.758;9.290;2022-09-09T11:29:58;3.50;;;1.50;;
428;SDS011;201;48.758;9.290;2022-09-09T11:35:31;2.80;;;1.10;;
428;SDS011;201;48.758;9.290;2022-09-09T11:38:25;2.07;;;1.07;;
428;SDS011;201;48.758;9.290;2022-09-09T11:41:10;6.40;;;4.03;;
428;SDS011;201;48.758;9.290;2022-09-09T11:46:11;3.13;;;1.37;;
428;SDS011;201;48.758;9.290;2022-09-09T11:51:11;3.73;;;0.97;;
428;SDS011;201;48.758;9.290;2022-09-09T11:53:51;2.10;;;1.23;;
428;SDS011;201;48.758;9.290;2022-09-09T11:59:06;1.37;;;0.50;;
428;SDS011;201;48.758;9.290;2022-09-09T12:01:45;1.93;;;1.00;;
428;SDS011;201;48.758;9.290;2022-09-09T12:04:16;3.43;;;0.70;;
428;SDS011;201;48.758;9.290;2022-09-09T12:09:12;0.70;;;0.30;;
428;SDS011;201;48.758;9.290;2022-09-09T12:12:04;0.77;;;0.30;;
428;SDS011;201;48.758;9.290;2022-09-09T12:14:37;2.00;;;0.70;;
428;SDS011;201;48.758;9.290;2022-09-09T12:17:10;0.67;;;0.40;;
428;SDS011;201;48.758;9.290;2022-09-09T12:19:44;1.07;;;0.60;;
428;SDS011;201;48.758;9.290;2022-09-09T12:22:20;0.90;;;0.50;;
428;SDS011;201;48.758;9.290;2022-09-09T12:25:16;1.77;;;0.30;;
428;SDS011;201;48.758;9.290;2022-09-09T12:28:18;1.17;;;0.40;;
428;SDS011;201;48.758;9.290;2022-09-09T12:31:03;2.33;;;0.50;;
428;SDS011;201;48.758;9.290;2022-09-09T12:33:35;0.80;;;0.40;;
428;SDS011;201;48.758;9.290;2022-09-09T12:36:02;1.53;;;0.30;;
428;SDS011;201;48.758;9.290;2022-09-09T12:38:32;1.47;;;0.60;;
428;SDS011;201;48.758;9.290;2022-09-09T12:41:00;1.50;;;0.60;;
428;SDS011;201;48.758;9.290;2022-09-09T12:43:27;0.90;;;0.40;;
428;SDS011;201;48.758;9.290;2022-09-09T12:45:55;2.50;;;0.47;;
428;SDS011;201;48.758;9.290;2022-09-09T12:48:35;1.73;;;0.47;;
428;SDS011;201;48.758;9.290;2022-09-09T12:51:05;2.50;;;0.60;;
428;SDS011;201;48.758;9.290;2022-09-09T12:53:42;2.70;;;0.43;;
428;SDS011;201;48.758;9.290;2022-09-09T12:56:19;2.07;;;0.53;;
428;SDS011;201;48.758;9.290;2022-09-09T12:58:47;1.90;;;0.70;;
428;SDS011;201;48.758;9.290;2022-09-09T13:01:23;1.47;;;0.60;;
428;SDS011;201;48.758;9.290;2022-09-09T13:03:51;1.97;;;0.70;;
428;SDS011;201;48.758;9.290;2022-09-09T13:06:19;1.10;;;0.83;;
428;SDS011;201;48.758;9.290;2022-09-09T13:08:50;2.30;;;0.60;;
428;SDS011;201;48.758;9.290;2022-09-09T13:11:17;1.70;;;0.50;;
428;SDS011;201;48.758;9.290;2022-09-09T13:13:51;1.60;;;0.90;;
428;SDS011;201;48.758;9.290;2022-09-09T13:16:25;1.90;;;0.70;;
428;SDS011;201;48.758;9.290;2022-09-09T13:18:56;2.27;;;0.97;;
428;SDS011;201;48.758;9.290;2022-09-09T13:21:33;2.77;;;0.80;;
428;SDS011;201;48.758;9.290;2022-09-09T13:24:04;1.63;;;0.57;;
428;SDS011;201;48.758;9.290;2022-09-09T13:26:32;2.23;;;0.60;;
428;SDS011;201;48.758;9.290;2022-09-09T13:29:14;1.40;;;0.53;;
428;SDS011;201;48.758;9.290;2022-09-09T13:31:45;1.57;;;0.60;;
428;SDS011;201;48.758;9.290;2022-09-09T13:34:28;2.20;;;0.80;;
428;SDS011;201;48.758;9.290;2022-09-09T13:36:59;1.87;;;0.70;;
428;SDS011;201;48.758;9.290;2022-09-09T13:39:36;2.40;;;0.60;;
428;SDS011;201;48.758;9.290;2022-09-09T13:42:02;3.07;;;0.63;;
428;SDS011;201;48.758;9.290;2022-09-09T13:44:30;1.70;;;0.70;;
428;SDS011;201;48.758;9.290;2022-09-09T13:47:01;1.83;;;0.80;;
428;SDS011;201;48.758;9.290;2022-09-09T13:49:31;1.97;;;0.50;;
428;SDS011;201;48.758;9.290;2022-09-09T13:52:09;2.63;;;1.40;;
428;SDS011;201;48.758;9.290;2022-09-09T13:54:39;1.70;;;0.77;;
428;SDS011;201;48.758;9.290;2022-09-09T13:57:11;1.60;;;1.00;;
428;SDS011;201;48.758;9.290;2022-09-09T13:59:47;2.07;;;0.70;;
428;SDS011;201;48.758;9.290;2022-09-09T14:02:13;2.03;;;0.93;;
428;SDS011;201;48.758;9.290;2022-09-09T14:04:39;1.87;;;0.80;;
428;SDS011;201;48.758;9.290;2022-09-09T14:07:14;2.37;;;0.57;;
428;SDS011;201;48.758;9.290;2022-09-09T14:09:42;3.30;;;1.20;;
428;SDS011;201;48.758;9.290;2022-09-09T14:12:11;1.80;;;0.60;;
428;SDS011;201;48.758;9.290;2022-09-09T14:14:37;3.10;;;0.73;;
428;SDS011;201;48.758;9.290;2022-09-09T14:17:03;1.43;;;0.60;;
428;SDS011;201;48.758;9.290;2022-09-09T14:19:28;2.60;;;0.60;;
428;SDS011;201;48.758;9.290;2022-09-09T14:21:55;2.90;;;1.00;;
428;SDS011;201;48.758;9.290;2022-09-09T14:24:21;2.80;;;1.33;;
428;SDS011;201;48.758;9.290;2022-09-09T14:26:47;2.40;;;0.70;;
428;SDS011;201;48.758;9.290;2022-09-09T14:29:12;1.60;;;0.80;;
428;SDS011;201;48.758;9.290;2022-09-09T14:31:38;2.90;;;0.63;;
428;SDS011;201;48.758;9.290;2022-09-09T14:34:03;1.23;;;0.80;;
428;SDS011;201;48.758;9.290;2022-09-09T14:36:29;4.33;;;0.50;;
428;SDS011;201;48.758;9.290;2022-09-09T14:38:55;1.43;;;0.80;;
428;SDS011;201;48.758;9.290;2022-09-09T14:41:20;2.00;;;0.40;;
428;SDS011;201;48.758;9.290;2022-09-09T14:43:47;1.00;;;0.50;;
428;SDS011;201;48.758;9.290;2022-09-09T14:46:14;1.17;;;0.53;;
428;SDS011;201;48.758;9.290;2022-09-09T14:48:42;1.50;;;0.40;;
428;SDS011;201;48.758;9.290;2022-09-09T14:51:09;5.13;;;1.00;;
428;SDS011;201;48.758;9.290;2022-09-09T14:53:41;2.67;;;1.00;;
428;SDS011;201;48.758;9.290;2022-09-09T14:56:09;2.73;;;0.70;;
428;SDS011;201;48.758;9.290;2022-09-09T14:58:39;1.57;;;0.60;;
428;SDS011;201;48.758;9.290;2022-09-09T15:01:06;3.83;;;1.10;;
428;SDS011;201;48.758;9.290;2022-09-09T15:03:36;1.30;;;0.87;;
428;SDS011;201;48.758;9.290;2022-09-09T15:06:12;2.97;;;0.93;;
428;SDS011;201;48.758;9.290;2022-09-09T15:08:40;1.57;;;0.60;;
428;SDS011;201;48.758;9.290;2022-09-09T15:11:10;2.30;;;0.60;;
428;SDS011;201;48.758;9.290;2022-09-09T15:13:37;0.73;;;0.50;;
428;SDS011;201;48.758;9.290;2022-09-09T15:16:07;1.00;;;0.60;;
428;SDS011;201;48.758;9.290;2022-09-09T15:18:37;4.10;;;1.00;;
428;SDS011;201;48.758;9.290;2022-09-09T15:21:07;1.20;;;0.60;;
428;SDS011;201;48.758;9.290;2022-09-09T15:23:36;1.20;;;0.80;;
428;SDS011;201;48.758;9.290;2022-09-09T15:26:03;5.90;;;2.50;;
428;SDS011;201;48.758;9.290;2022-09-09T15:28:29;5.17;;;2.03;;
428;SDS011;201;48.758;9.290;2022-09-09T15:30:57;1.83;;;0.70;;
428;SDS011;201;48.758;9.290;2022-09-09T15:33:24;2.57;;;0.80;;
428;SDS011;201;48.758;9.290;2022-09-09T15:35:50;2.33;;;0.60;;
428;SDS011;201;48.758;9.290;2022-09-09T15:38:16;2.80;;;0.80;;
428;SDS011;201;48.758;9.290;2022-09-09T15:40:42;2.93;;;0.73;;
428;SDS011;201;48.758;9.290;2022-09-09T15:43:08;2.37;;;0.47;;
428;SDS011;201;48.758;9.290;2022-09-09T15:45:35;1.00;;;0.70;;
428;SDS011;201;48.758;9.290;2022-09-09T15:48:01;4.27;;;2.40;;
428;SDS011;201;48.758;9.290;2022-09-09T15:50:28;2.33;;;1.00;;
428;SDS011;201;48.758;9.290;2022-09-09T15:52:56;1.80;;;0.80;;
428;SDS011;201;48.758;9.290;2022-09-09T15:55:22;5.30;;;2.83;;
428;SDS011;201;48.758;9.290;2022-09-09T15:57:50;3.93;;;2.57;;
428;SDS011;201;48.758;9.290;2022-09-09T16:00:19;3.20;;;0.90;;
428;SDS011;201;48.758;9.290;2022-09-09T16:02:46;2.60;;;0.87;;
428;SDS011;201;48.758;9.290;2022-09-09T16:05:12;2.27;;;1.03;;
428;SDS011;201;48.758;9.290;2022-09-09T16:07:38;1.10;;;0.63;;
428;SDS011;201;48.758;9.290;2022-09-09T16:10:04;2.40;;;0.70;;
428;SDS011;201;48.758;9.290;2022-09-09T16:12:30;4.27;;;1.30;;
428;SDS011;201;48.758;9.290;2022-09-09T16:14:56;7.43;;;1.73;;
428;SDS011;201;48.758;9.290;2022-09-09T16:17:21;1.70;;;0.87;;
428;SDS011;201;48.758;9.290;2022-09-09T16:19:47;2.07;;;0.80;;
428;SDS011;201;48.758;9.290;2022-09-09T16:22:12;2.27;;;1.23;;
428;SDS011;201;48.758;9.290;2022-09-09T16:24:40;1.20;;;0.90;;
428;SDS011;201;48.758;9.290;2022-09-09T16:27:05;2.77;;;0.93;;
428;SDS011;201;48.758;9.290;2022-09-09T16:29:31;2.50;;;0.97;;
428;SDS011;201;48.758;9.290;2022-09-09T16:31:57;0.97;;;0.60;;
428;SDS011;201;48.758;9.290;2022-09-09T16:34:23;6.57;;;3.47;;
428;SDS011;201;48.758;9.290;2022-09-09T16:36:50;1.67;;;0.70;;
428;SDS011;201;48.758;9.290;2022-09-09T16:39:17;2.77;;;1.17;;
428;SDS011;201;48.758;9.290;2022-09-09T16:41:44;2.43;;;1.67;;
428;SDS011;201;48.758;9.290;2022-09-09T16:44:12;1.80;;;0.70;;
428;SDS011;201;48.758;9.290;2022-09-09T16:46:41;2.10;;;0.70;;
428;SDS011;201;48.758;9.290;2022-09-09T16:49:08;1.93;;;1.17;;
428;SDS011;201;48.758;9.290;2022-09-09T16:51:37;4.20;;;1.57;;
428;SDS011;201;48.758;9.290;2022-09-09T16:54:05;3.63;;;1.00;;
428;SDS011;201;48.758;9.290;2022-09-09T16:56:32;4.73;;;0.90;;
428;SDS011;201;48.758;9.290;2022-09-09T16:59:02;1.50;;;0.80;;
428;SDS011;201;48.758;9.290;2022-09-09T17:01:30;3.83;;;0.70;;
428;SDS011;201;48.758;9.290;2022-09-09T17:03:58;2.60;;;0.60;;
428;SDS011;201;48.758;9.290;2022-09-09T17:06:26;0.87;;;0.50;;
428;SDS011;201;48.758;9.290;2022-09-09T17:08:58;1.00;;;0.80;;
428;SDS011;201;48.758;9.290;2022-09-09T17:11:26;0.80;;;0.40;;
428;SDS011;201;48.758;9.290;2022-09-09T17:13:53;1.33;;;0.60;;
428;SDS011;201;48.758;9.290;2022-09-09T17:16:20;1.37;;;0.50;;
428;SDS011;201;48.758;9.290;2022-09-09T17:18:48;1.03;;;0.50;;
428;SDS011;201;48.758;9.290;2022-09-09T17:21:18;2.43;;;1.00;;
428;SDS011;201;48.758;9.290;2022-09-09T17:23:45;1.20;;;0.70;;
428;SDS011;201;48.758;9.290;2022-09-09T17:26:12;1.57;;;0.50;;
428;SDS011;201;48.758;9.290;2022-09-09T17:28:40;1.43;;;0.47;;
428;SDS011;201;48.758;9.290;2022-09-09T17:31:07;0.70;;;0.40;;
428;SDS011;201;48.758;9.290;2022-09-09T17:33:34;0.83;;;0.40;;
428;SDS011;201;48.758;9.290;2022-09-09T17:36:04;2.10;;;0.90;;
428;SDS011;201;48.758;9.290;2022-09-09T17:38:34;1.57;;;0.40;;
428;SDS011;201;48.758;9.290;2022-09-09T17:41:08;1.40;;;0.70;;
428;SDS011;201;48.758;9.290;2022-09-09T17:43:38;1.00;;;0.50;;
428;SDS011;201;48.758;9.290;2022-09-09T17:46:08;1.20;;;0.60;;
428;SDS011;201;48.758;9.290;2022-09-09T17:48:36;1.20;;;0.50;;
428;SDS011;201;48.758;9.290;2022-09-09T17:51:03;1.67;;;0.60;;
428;SDS011;201;48.758;9.290;2022-09-09T17:53:37;4.27;;;0.70;;